createdAt,value
2023-02-15T00:00:16.131Z,3.03
2023-02-15T00:01:18.367Z,2.58
2023-02-15T00:02:21.152Z,2.57
2023-02-15T00:03:23.641Z,2.69
2023-02-15T00:04:46.807Z,2.87
2023-02-15T00:05:49.272Z,2.94
2023-02-15T00:06:51.926Z,2.67
2023-02-15T00:07:54.247Z,2.53
2023-02-15T00:08:57.090Z,2.65
2023-02-15T00:09:59.427Z,2.26
2023-02-15T00:11:09.398Z,2.31
2023-02-15T00:12:11.650Z,2.46
2023-02-15T00:13:14.046Z,2.61
2023-02-15T00:14:21.866Z,2.39
2023-02-15T00:15:24.364Z,2.35
2023-02-15T00:16:26.579Z,2.25
2023-02-15T00:17:29.996Z,2.01
2023-02-15T00:18:33.004Z,2.07
2023-02-15T00:19:35.229Z,1.89
2023-02-15T00:20:37.698Z,2.07
2023-02-15T00:21:41.032Z,2.12
2023-02-15T00:22:43.312Z,2.03
2023-02-15T00:23:45.711Z,2.13
2023-02-15T00:24:47.931Z,2.32
2023-02-15T00:25:50.961Z,2.23
2023-02-15T00:26:53.521Z,2.17
2023-02-15T00:27:55.996Z,2.14
2023-02-15T00:29:02.254Z,1.98
2023-02-15T00:30:04.902Z,1.93
2023-02-15T00:31:09.952Z,1.93
2023-02-15T00:32:12.213Z,1.89
2023-02-15T00:33:14.499Z,1.85
2023-02-15T00:34:21.129Z,1.78
2023-02-15T00:35:23.339Z,1.70
2023-02-15T00:36:25.764Z,1.70
2023-02-15T00:37:27.977Z,1.61
2023-02-15T00:38:31.138Z,1.47
2023-02-15T00:39:33.347Z,1.45
2023-02-15T00:40:35.907Z,1.52
2023-02-15T00:41:38.457Z,1.55
2023-02-15T00:42:40.686Z,1.47
2023-02-15T00:43:44.250Z,1.54
2023-02-15T00:44:46.448Z,1.62
2023-02-15T00:45:49.003Z,1.66
2023-02-15T00:46:51.522Z,1.63
2023-02-15T00:47:53.759Z,1.57
2023-02-15T00:48:56.059Z,1.64
2023-02-15T00:49:58.302Z,1.59
2023-02-15T00:51:01.915Z,1.62
2023-02-15T00:52:04.489Z,1.70
2023-02-15T00:53:06.861Z,1.65
2023-02-15T00:54:09.353Z,1.61
2023-02-15T00:55:11.620Z,1.63
2023-02-15T00:56:14.211Z,1.52
2023-02-15T00:57:16.603Z,1.53
2023-02-15T00:58:18.830Z,1.55
2023-02-15T00:59:21.311Z,1.53
2023-02-15T01:00:23.787Z,1.61
2023-02-15T01:01:27.062Z,1.51
2023-02-15T01:02:29.407Z,1.43
2023-02-15T01:03:31.643Z,1.40
2023-02-15T01:04:33.888Z,1.42
2023-02-15T01:05:36.209Z,1.43
2023-02-15T01:06:40.031Z,1.36
2023-02-15T01:07:42.442Z,1.33
2023-02-15T01:08:47.009Z,1.32
2023-02-15T01:09:49.404Z,1.30
2023-02-15T01:10:51.718Z,1.20
2023-02-15T01:11:54.120Z,1.16
2023-02-15T01:12:57.606Z,1.24
2023-02-15T01:14:00.053Z,1.25
2023-02-15T01:15:02.292Z,1.13
2023-02-15T01:16:05.578Z,1.14
2023-02-15T01:17:07.950Z,1.15
2023-02-15T01:18:12.437Z,1.08
2023-02-15T01:19:14.685Z,1.12
2023-02-15T01:20:16.993Z,1.11
2023-02-15T01:21:22.223Z,1.13
2023-02-15T01:22:24.666Z,1.22
2023-02-15T01:23:26.951Z,1.30
2023-02-15T01:24:29.170Z,1.32
2023-02-15T01:25:31.398Z,1.28
2023-02-15T01:26:33.793Z,1.16
2023-02-15T01:27:36.199Z,1.14
2023-02-15T01:28:38.922Z,1.18
2023-02-15T01:29:41.171Z,1.19
2023-02-15T01:30:43.554Z,1.34
2023-02-15T01:31:46.174Z,1.32
2023-02-15T01:32:50.417Z,1.27
2023-02-15T01:33:52.615Z,1.24
2023-02-15T01:34:55.053Z,1.29
2023-02-15T01:35:59.365Z,1.32
2023-02-15T01:37:02.380Z,1.29
2023-02-15T01:38:04.610Z,1.39
2023-02-15T01:39:08.701Z,1.41
2023-02-15T01:40:17.216Z,1.35
2023-02-15T01:41:27.151Z,1.32
2023-02-15T01:42:30.767Z,1.37
2023-02-15T01:43:43.931Z,1.44
2023-02-15T01:44:48.803Z,1.35
2023-02-15T01:45:51.330Z,1.32
2023-02-15T01:46:54.919Z,1.26
2023-02-15T01:48:00.467Z,1.32
2023-02-15T01:49:24.745Z,1.22
2023-02-15T01:50:36.579Z,1.22
2023-02-15T01:51:41.525Z,1.23
2023-02-15T01:53:05.507Z,1.23
2023-02-15T01:54:12.329Z,1.20
2023-02-15T01:55:15.073Z,1.27
2023-02-15T01:56:29.355Z,1.24
2023-02-15T01:57:31.674Z,1.24
2023-02-15T01:58:36.235Z,1.28
2023-02-15T01:59:40.862Z,1.36
2023-02-15T02:00:44.413Z,1.30
2023-02-15T02:01:47.503Z,1.24
2023-02-15T02:02:54.532Z,1.28
2023-02-15T02:04:02.649Z,1.28
2023-02-15T02:05:08.123Z,1.36
2023-02-15T02:06:11.215Z,1.35
2023-02-15T02:07:20.226Z,1.41
2023-02-15T02:08:22.603Z,1.34
2023-02-15T02:09:25.711Z,1.29
2023-02-15T02:10:29.033Z,1.29
2023-02-15T02:11:34.013Z,1.22
2023-02-15T02:12:39.908Z,1.22
2023-02-15T02:13:45.608Z,1.14
2023-02-15T02:14:51.955Z,1.15
2023-02-15T02:16:39.605Z,1.10
2023-02-15T02:18:09.497Z,1.03
2023-02-15T02:19:30.058Z,1.03
2023-02-15T02:20:49.451Z,0.94
2023-02-15T02:22:09.682Z,0.73
2023-02-15T02:23:26.691Z,0.85
2023-02-15T02:24:59.311Z,0.95
2023-02-15T02:26:23.067Z,0.92
2023-02-15T02:27:30.989Z,0.91
2023-02-15T02:28:52.787Z,0.95
2023-02-15T02:30:15.592Z,0.70
2023-02-15T02:31:55.114Z,0.86
2023-02-15T02:33:21.542Z,0.95
2023-02-15T02:34:35.196Z,0.87
2023-02-15T02:35:50.052Z,0.90
2023-02-15T02:37:09.400Z,0.86
2023-02-15T02:38:11.947Z,0.89
2023-02-15T02:39:34.821Z,0.87
2023-02-15T02:41:13.650Z,0.85
2023-02-15T02:42:34.380Z,0.94
2023-02-15T02:44:05.805Z,0.93
2023-02-15T02:45:15.201Z,0.97
2023-02-15T02:46:27.388Z,0.93
2023-02-15T02:47:39.313Z,0.90
2023-02-15T02:48:42.133Z,0.87
2023-02-15T02:49:45.292Z,0.82
2023-02-15T02:50:47.765Z,0.81
2023-02-15T02:52:00.120Z,0.77
2023-02-15T02:53:02.627Z,0.62
2023-02-15T02:54:07.577Z,0.70
2023-02-15T02:55:39.989Z,0.68
2023-02-15T02:56:48.129Z,0.87
2023-02-15T02:57:58.405Z,1.02
2023-02-15T02:59:07.355Z,1.16
2023-02-15T03:00:10.641Z,1.23
2023-02-15T03:01:40.648Z,1.31
2023-02-15T03:02:48.574Z,1.31
2023-02-15T03:04:02.121Z,1.37
2023-02-15T03:05:10.113Z,1.45
2023-02-15T03:06:24.036Z,1.46
2023-02-15T03:07:29.954Z,1.50
2023-02-15T03:08:45.657Z,1.56
2023-02-15T03:09:52.465Z,1.63
2023-02-15T03:10:58.136Z,1.59
2023-02-15T03:12:00.376Z,1.59
2023-02-15T03:13:03.554Z,1.55
2023-02-15T03:14:06.521Z,1.54
2023-02-15T03:15:16.464Z,1.39
2023-02-15T03:16:29.092Z,1.32
2023-02-15T03:17:36.435Z,1.30
2023-02-15T03:18:53.784Z,1.27
2023-02-15T03:20:01.520Z,1.23
2023-02-15T03:21:05.494Z,0.90
2023-02-15T03:22:31.944Z,0.84
2023-02-15T03:23:37.992Z,0.87
2023-02-15T03:24:50.676Z,0.77
2023-02-15T03:26:00.520Z,0.81
2023-02-15T03:27:11.635Z,0.75
2023-02-15T03:28:19.593Z,0.68
2023-02-15T03:29:24.702Z,0.55
2023-02-15T03:30:29.348Z,0.46
2023-02-15T03:31:34.503Z,0.53
2023-02-15T03:32:39.961Z,0.79
2023-02-15T03:33:50.758Z,0.95
2023-02-15T03:34:52.849Z,1.10
2023-02-15T03:36:10.925Z,1.25
2023-02-15T03:37:21.999Z,1.34
2023-02-15T03:38:41.674Z,1.37
2023-02-15T03:39:54.161Z,1.49
2023-02-15T03:41:13.122Z,1.31
2023-02-15T03:42:23.579Z,1.27
2023-02-15T03:43:28.912Z,1.35
2023-02-15T03:44:37.433Z,1.52
2023-02-15T03:45:55.495Z,1.54
2023-02-15T03:47:07.763Z,1.14
2023-02-15T03:48:10.404Z,1.23
2023-02-15T03:49:42.255Z,1.27
2023-02-15T03:51:03.720Z,1.36
2023-02-15T03:52:09.704Z,1.48
2023-02-15T03:53:15.913Z,1.41
2023-02-15T03:54:43.848Z,1.34
2023-02-15T03:55:50.276Z,1.36
2023-02-15T03:57:12.456Z,1.35
2023-02-15T03:58:33.256Z,1.30
2023-02-15T03:59:54.118Z,1.29
2023-02-15T04:01:20.482Z,1.22
2023-02-15T04:02:29.464Z,0.99
2023-02-15T04:03:41.943Z,0.93
2023-02-15T04:04:47.947Z,0.88
2023-02-15T04:05:50.424Z,0.90
2023-02-15T04:06:52.790Z,0.90
2023-02-15T04:07:55.569Z,0.91
2023-02-15T04:09:16.413Z,0.83
2023-02-15T04:10:37.131Z,0.82
2023-02-15T04:11:39.340Z,0.76
2023-02-15T04:12:41.553Z,0.69
2023-02-15T04:13:44.039Z,0.74
2023-02-15T04:15:05.026Z,0.71
2023-02-15T04:16:08.229Z,0.70
2023-02-15T04:17:13.315Z,0.66
2023-02-15T04:18:15.931Z,0.69
2023-02-15T04:19:36.955Z,0.67
2023-02-15T04:20:58.147Z,0.58
2023-02-15T04:22:18.908Z,0.64
2023-02-15T04:23:39.678Z,0.57
2023-02-15T04:25:00.646Z,0.35
2023-02-15T04:26:06.551Z,0.20
2023-02-15T04:27:09.058Z,0.11
2023-02-15T04:28:11.859Z,0.04
2023-02-15T04:29:14.389Z,0.00
2023-02-15T04:30:19.728Z,-0.04
2023-02-15T04:31:23.011Z,-0.06
2023-02-15T04:32:25.728Z,-0.03
2023-02-15T04:33:27.938Z,-0.05
2023-02-15T04:34:30.238Z,-0.11
2023-02-15T04:35:34.447Z,-0.11
2023-02-15T04:36:37.848Z,-0.34
2023-02-15T04:37:41.248Z,-0.19
2023-02-15T04:38:43.481Z,-0.16
2023-02-15T04:39:45.936Z,-0.06
2023-02-15T04:40:52.252Z,-0.10
2023-02-15T04:41:55.360Z,-0.08
2023-02-15T04:42:57.824Z,-0.11
2023-02-15T04:44:01.532Z,-0.19
2023-02-15T04:45:04.895Z,-0.18
2023-02-15T04:46:07.453Z,-0.24
2023-02-15T04:47:10.835Z,-0.19
2023-02-15T04:48:13.522Z,-0.25
2023-02-15T04:49:15.760Z,-0.22
2023-02-15T04:50:18.274Z,-0.08
2023-02-15T04:51:20.721Z,-0.06
2023-02-15T04:52:23.727Z,0.03
2023-02-15T04:53:25.991Z,-0.10
2023-02-15T04:54:28.548Z,-0.20
2023-02-15T04:55:31.012Z,-0.14
2023-02-15T04:56:35.073Z,-0.07
2023-02-15T04:57:37.339Z,-0.04
2023-02-15T04:58:42.329Z,-0.03
2023-02-15T04:59:44.564Z,-0.06
2023-02-15T05:00:47.168Z,0.01
2023-02-15T05:01:49.450Z,0.02
2023-02-15T05:02:51.678Z,0.07
2023-02-15T05:03:54.165Z,0.00
2023-02-15T05:04:56.701Z,0.03
2023-02-15T05:05:58.939Z,0.05
2023-02-15T05:07:01.397Z,0.07
2023-02-15T05:08:03.901Z,0.06
2023-02-15T05:09:06.203Z,0.11
2023-02-15T05:10:09.437Z,0.15
2023-02-15T05:11:11.758Z,0.08
2023-02-15T05:12:13.963Z,0.03
2023-02-15T05:13:16.272Z,0.08
2023-02-15T05:14:19.048Z,0.03
2023-02-15T05:15:21.278Z,0.07
2023-02-15T05:16:23.583Z,0.02
2023-02-15T05:17:26.029Z,0.01
2023-02-15T05:18:28.489Z,0.03
2023-02-15T05:19:31.011Z,0.08
2023-02-15T05:20:33.499Z,0.08
2023-02-15T05:21:35.891Z,0.05
2023-02-15T05:22:38.111Z,0.11
2023-02-15T05:23:40.419Z,0.07
2023-02-15T05:25:01.176Z,0.11
2023-02-15T05:26:22.438Z,0.11
2023-02-15T05:27:43.393Z,0.11
2023-02-15T05:28:45.964Z,0.09
2023-02-15T05:29:48.289Z,0.07
2023-02-15T05:30:52.744Z,0.04
2023-02-15T05:31:55.730Z,0.05
2023-02-15T05:32:58.336Z,0.11
2023-02-15T05:34:01.179Z,0.07
2023-02-15T05:35:03.598Z,-0.04
2023-02-15T05:36:06.825Z,-0.02
2023-02-15T05:37:09.436Z,0.02
2023-02-15T05:38:11.937Z,0.09
2023-02-15T05:39:14.244Z,0.09
2023-02-15T05:40:16.507Z,0.09
2023-02-15T05:41:19.401Z,0.03
2023-02-15T05:42:21.638Z,0.04
2023-02-15T05:43:24.375Z,-0.05
2023-02-15T05:44:26.963Z,-0.02
2023-02-15T05:45:29.418Z,-0.03
2023-02-15T05:46:31.950Z,-0.06
2023-02-15T05:47:34.327Z,-0.06
2023-02-15T05:48:36.724Z,-0.04
2023-02-15T05:49:39.003Z,-0.03
2023-02-15T05:50:41.803Z,-0.03
2023-02-15T05:51:44.063Z,-0.05
2023-02-15T05:52:46.372Z,-0.08
2023-02-15T05:53:49.075Z,-0.04
2023-02-15T05:54:51.280Z,0.01
2023-02-15T05:55:54.856Z,0.05
2023-02-15T05:56:57.094Z,0.03
2023-02-15T05:57:59.592Z,0.02
2023-02-15T05:59:02.042Z,-0.01
2023-02-15T06:00:06.084Z,-0.02
2023-02-15T06:01:19.165Z,-0.08
2023-02-15T06:02:21.424Z,-0.06
2023-02-15T06:03:26.655Z,-0.04
2023-02-15T06:04:28.969Z,-0.07
2023-02-15T06:05:31.376Z,-0.07
2023-02-15T06:06:35.498Z,-0.08
2023-02-15T06:07:37.740Z,-0.01
2023-02-15T06:08:40.155Z,0.02
2023-02-15T06:09:42.646Z,-0.03
2023-02-15T06:10:47.251Z,0.01
2023-02-15T06:11:49.502Z,0.02
2023-02-15T06:12:52.008Z,-0.08
2023-02-15T06:13:54.237Z,-0.10
2023-02-15T06:14:56.675Z,-0.09
2023-02-15T06:15:59.612Z,-0.05
2023-02-15T06:17:01.976Z,-0.07
2023-02-15T06:18:05.690Z,-0.06
2023-02-15T06:19:07.991Z,0.02
2023-02-15T06:20:10.725Z,0.07
2023-02-15T06:21:13.110Z,0.13
2023-02-15T06:22:15.510Z,0.05
2023-02-15T06:23:18.388Z,0.10
2023-02-15T06:24:20.631Z,0.10
2023-02-15T06:25:23.167Z,0.09
2023-02-15T06:26:25.902Z,0.07
2023-02-15T06:27:28.141Z,-0.03
2023-02-15T06:28:30.586Z,-0.15
2023-02-15T06:29:32.836Z,0.00
2023-02-15T06:30:35.310Z,0.02
2023-02-15T06:31:37.638Z,0.56
2023-02-15T06:32:41.621Z,0.41
2023-02-15T06:33:44.154Z,0.26
2023-02-15T06:34:48.508Z,0.27
2023-02-15T06:35:51.114Z,0.15
2023-02-15T06:36:53.451Z,0.21
2023-02-15T06:37:56.166Z,0.09
2023-02-15T06:38:58.950Z,0.11
2023-02-15T06:40:03.663Z,0.08
2023-02-15T06:41:06.259Z,0.08
2023-02-15T06:42:08.751Z,0.09
2023-02-15T06:43:11.401Z,0.13
2023-02-15T06:44:13.666Z,0.16
2023-02-15T06:45:16.206Z,0.10
2023-02-15T06:46:18.927Z,0.14
2023-02-15T06:47:21.263Z,0.11
2023-02-15T06:48:23.458Z,-0.02
2023-02-15T06:49:25.919Z,0.04
2023-02-15T06:50:28.268Z,0.05
2023-02-15T06:51:30.989Z,0.04
2023-02-15T06:52:34.570Z,0.09
2023-02-15T06:53:37.024Z,0.13
2023-02-15T06:54:39.273Z,0.14
2023-02-15T06:55:41.755Z,0.16
2023-02-15T06:56:44.906Z,0.18
2023-02-15T06:57:48.394Z,0.13
2023-02-15T06:58:53.653Z,0.12
2023-02-15T06:59:55.880Z,0.21
2023-02-15T07:00:58.103Z,0.07
2023-02-15T07:02:00.493Z,-0.03
2023-02-15T07:03:03.678Z,0.10
2023-02-15T07:04:05.948Z,0.10
2023-02-15T07:05:08.635Z,0.19
2023-02-15T07:06:12.577Z,0.23
2023-02-15T07:07:14.810Z,0.15
2023-02-15T07:08:17.339Z,0.16
2023-02-15T07:09:19.537Z,0.07
2023-02-15T07:10:22.136Z,0.05
2023-02-15T07:11:42.978Z,0.08
2023-02-15T07:12:46.635Z,0.08
2023-02-15T07:13:49.412Z,0.01
2023-02-15T07:14:51.824Z,0.03
2023-02-15T07:15:54.070Z,0.04
2023-02-15T07:16:57.107Z,0.14
2023-02-15T07:18:00.036Z,0.22
2023-02-15T07:19:02.835Z,0.14
2023-02-15T07:20:08.902Z,0.23
2023-02-15T07:21:11.424Z,0.11
2023-02-15T07:22:13.855Z,0.24
2023-02-15T07:23:16.087Z,0.35
2023-02-15T07:24:18.918Z,0.29
2023-02-15T07:25:21.532Z,0.36
2023-02-15T07:26:23.953Z,0.45
2023-02-15T07:27:26.202Z,0.48
2023-02-15T07:28:29.344Z,0.57
2023-02-15T07:29:31.824Z,0.57
2023-02-15T07:30:34.480Z,0.61
2023-02-15T07:31:36.824Z,0.69
2023-02-15T07:32:59.365Z,0.71
2023-02-15T07:34:02.123Z,0.65
2023-02-15T07:35:04.668Z,0.57
2023-02-15T07:36:07.721Z,0.63
2023-02-15T07:37:10.053Z,0.63
2023-02-15T07:38:12.473Z,0.74
2023-02-15T07:39:14.674Z,0.82
2023-02-15T07:40:17.184Z,1.01
2023-02-15T07:41:19.433Z,1.07
2023-02-15T07:42:23.038Z,1.20
2023-02-15T07:43:26.913Z,1.32
2023-02-15T07:44:29.131Z,1.40
2023-02-15T07:45:31.928Z,1.48
2023-02-15T07:46:34.306Z,1.52
2023-02-15T07:47:36.558Z,1.59
2023-02-15T07:48:41.033Z,1.71
2023-02-15T07:49:43.336Z,1.78
2023-02-15T07:50:45.800Z,1.90
2023-02-15T07:51:48.007Z,2.11
2023-02-15T07:52:50.252Z,2.35
2023-02-15T07:53:52.767Z,2.59
2023-02-15T07:54:55.616Z,2.84
2023-02-15T07:56:01.730Z,3.09
2023-02-15T07:57:04.282Z,3.25
2023-02-15T07:58:06.482Z,3.46
2023-02-15T07:59:10.265Z,3.67
2023-02-15T08:00:14.683Z,3.86
2023-02-15T08:01:18.154Z,4.00
2023-02-15T08:02:20.381Z,4.22
2023-02-15T08:03:30.439Z,4.34
2023-02-15T08:04:32.801Z,4.39
2023-02-15T08:05:35.289Z,4.34
2023-02-15T08:06:38.993Z,4.33
2023-02-15T08:07:41.401Z,4.52
2023-02-15T08:08:43.903Z,4.56
2023-02-15T08:09:46.140Z,4.69
2023-02-15T08:11:07.167Z,5.04
2023-02-15T08:12:09.418Z,5.25
2023-02-15T08:13:11.721Z,5.20
2023-02-15T08:14:14.971Z,5.22
2023-02-15T08:15:17.464Z,5.34
2023-02-15T08:16:19.930Z,5.41
2023-02-15T08:17:22.487Z,5.49
2023-02-15T08:18:24.825Z,5.51
2023-02-15T08:19:29.416Z,5.50
2023-02-15T08:20:31.979Z,5.47
2023-02-15T08:21:36.125Z,5.73
2023-02-15T08:22:38.577Z,5.90
2023-02-15T08:23:41.270Z,5.94
2023-02-15T08:24:43.476Z,6.17
2023-02-15T08:25:45.696Z,6.18
2023-02-15T08:26:49.701Z,6.32
2023-02-15T08:27:52.000Z,6.27
2023-02-15T08:28:54.887Z,6.51
2023-02-15T08:29:57.524Z,6.53
2023-02-15T08:31:11.190Z,6.72
2023-02-15T08:32:14.006Z,6.90
2023-02-15T08:33:18.927Z,7.01
2023-02-15T08:34:22.295Z,6.88
2023-02-15T08:35:24.975Z,6.82
2023-02-15T08:36:30.713Z,6.86
2023-02-15T08:37:33.159Z,6.71
2023-02-15T08:38:36.769Z,6.77
2023-02-15T08:39:39.299Z,6.85
2023-02-15T08:40:41.727Z,6.94
2023-02-15T08:41:46.104Z,6.95
2023-02-15T08:42:48.586Z,7.02
2023-02-15T08:43:54.711Z,7.17
2023-02-15T08:44:57.238Z,7.12
2023-02-15T08:45:59.700Z,7.36
2023-02-15T08:47:04.678Z,7.22
2023-02-15T08:48:07.730Z,7.28
2023-02-15T08:49:12.874Z,7.33
2023-02-15T08:50:15.420Z,7.30
2023-02-15T08:51:23.104Z,7.51
2023-02-15T08:52:25.347Z,7.55
2023-02-15T08:53:27.676Z,7.67
2023-02-15T08:54:29.940Z,7.45
2023-02-15T08:55:32.445Z,7.33
2023-02-15T08:56:39.651Z,7.34
2023-02-15T08:57:45.884Z,7.38
2023-02-15T08:58:48.300Z,7.34
2023-02-15T08:59:51.975Z,7.45
2023-02-15T09:00:54.579Z,7.60
2023-02-15T09:01:56.982Z,7.30
2023-02-15T09:02:59.428Z,7.61
2023-02-15T09:04:09.810Z,7.75
2023-02-15T09:05:12.009Z,7.82
2023-02-15T09:06:15.433Z,7.91
2023-02-15T09:07:19.725Z,7.87
2023-02-15T09:08:22.252Z,7.85
2023-02-15T09:09:24.529Z,7.85
2023-02-15T09:10:27.056Z,7.85
2023-02-15T09:11:31.664Z,7.83
2023-02-15T09:12:33.902Z,7.98
2023-02-15T09:13:36.621Z,7.93
2023-02-15T09:14:38.827Z,8.23
2023-02-15T09:15:41.079Z,8.36
2023-02-15T09:16:47.425Z,8.32
2023-02-15T09:17:49.796Z,8.40
2023-02-15T09:18:52.596Z,8.37
2023-02-15T09:19:55.160Z,8.22
2023-02-15T09:20:57.499Z,8.21
2023-02-15T09:21:59.944Z,8.27
2023-02-15T09:23:02.195Z,8.22
2023-02-15T09:24:08.089Z,8.20
2023-02-15T09:25:10.336Z,8.12
2023-02-15T09:26:17.735Z,8.13
2023-02-15T09:27:20.115Z,8.10
2023-02-15T09:28:22.381Z,8.25
2023-02-15T09:29:25.528Z,8.16
2023-02-15T09:30:27.927Z,8.18
2023-02-15T09:31:33.784Z,8.36
2023-02-15T09:32:36.072Z,8.55
2023-02-15T09:33:39.847Z,8.59
2023-02-15T09:34:42.294Z,8.61
2023-02-15T09:35:44.614Z,8.68
2023-02-15T09:36:47.724Z,8.68
2023-02-15T09:37:50.336Z,8.77
2023-02-15T09:39:11.119Z,8.92
2023-02-15T09:40:18.031Z,8.82
2023-02-15T09:41:37.933Z,8.66
2023-02-15T09:42:53.748Z,8.73
2023-02-15T09:44:23.790Z,8.82
2023-02-15T09:45:55.342Z,8.89
2023-02-15T09:47:22.659Z,9.03
2023-02-15T09:48:41.451Z,9.16
2023-02-15T09:49:55.377Z,9.29
2023-02-15T09:51:22.691Z,9.11
2023-02-15T09:52:43.901Z,9.18
2023-02-15T09:53:48.885Z,9.02
2023-02-15T09:55:03.259Z,8.77
2023-02-15T09:56:18.640Z,8.89
2023-02-15T09:57:49.357Z,8.71
2023-02-15T09:59:16.145Z,8.88
2023-02-15T10:00:38.124Z,9.06
2023-02-15T10:01:53.609Z,9.25
2023-02-15T10:03:12.921Z,8.92
2023-02-15T10:04:42.405Z,9.05
2023-02-15T10:06:05.319Z,9.09
2023-02-15T10:07:23.264Z,9.17
2023-02-15T10:08:52.699Z,9.16
2023-02-15T10:10:19.493Z,9.01
2023-02-15T10:11:40.853Z,9.04
2023-02-15T10:13:27.051Z,9.09
2023-02-15T10:14:38.900Z,9.14
2023-02-15T10:16:30.180Z,9.14
2023-02-15T10:18:07.044Z,9.27
2023-02-15T10:19:20.970Z,8.96
2023-02-15T10:20:57.975Z,8.95
2023-02-15T10:22:06.266Z,9.08
2023-02-15T10:23:14.485Z,9.23
2023-02-15T10:24:55.870Z,9.51
2023-02-15T10:26:17.424Z,9.39
2023-02-15T10:27:22.889Z,9.37
2023-02-15T10:28:40.234Z,9.21
2023-02-15T10:30:21.561Z,9.27
2023-02-15T10:31:55.723Z,9.41
2023-02-15T10:33:11.138Z,9.34
2023-02-15T10:34:18.241Z,9.44
2023-02-15T10:35:47.584Z,9.50
2023-02-15T10:37:13.111Z,9.40
2023-02-15T10:38:26.669Z,9.11
2023-02-15T10:39:58.575Z,8.84
2023-02-15T10:41:23.038Z,8.90
2023-02-15T10:42:36.630Z,8.80
2023-02-15T10:43:45.056Z,8.78
2023-02-15T10:45:01.510Z,8.72
2023-02-15T10:46:27.014Z,8.61
2023-02-15T10:47:56.325Z,8.87
2023-02-15T10:49:04.548Z,8.91
2023-02-15T10:50:30.862Z,9.00
2023-02-15T10:51:33.325Z,9.03
2023-02-15T10:53:01.197Z,9.04
2023-02-15T10:54:35.667Z,8.94
2023-02-15T10:55:50.062Z,9.06
2023-02-15T10:56:55.141Z,9.15
2023-02-15T10:58:06.260Z,9.06
2023-02-15T10:59:26.711Z,9.02
2023-02-15T11:00:41.314Z,9.13
2023-02-15T11:01:56.316Z,9.25
2023-02-15T11:03:19.772Z,9.17
2023-02-15T11:04:41.051Z,9.31
2023-02-15T11:05:59.836Z,9.37
2023-02-15T11:07:09.932Z,9.25
2023-02-15T11:08:13.073Z,9.35
2023-02-15T11:09:19.279Z,9.28
2023-02-15T11:10:35.088Z,9.15
2023-02-15T11:11:41.549Z,9.23
2023-02-15T11:12:46.253Z,9.25
2023-02-15T11:13:53.765Z,9.39
2023-02-15T11:15:12.819Z,9.32
2023-02-15T11:16:38.367Z,9.62
2023-02-15T11:17:46.823Z,9.71
2023-02-15T11:19:04.934Z,9.80
2023-02-15T11:20:19.897Z,9.87
2023-02-15T11:21:28.628Z,9.83
2023-02-15T11:22:34.289Z,9.78
2023-02-15T11:23:45.825Z,9.77
2023-02-15T11:24:49.546Z,9.77
2023-02-15T11:26:11.450Z,9.70
2023-02-15T11:27:23.056Z,9.76
2023-02-15T11:28:32.260Z,9.80
2023-02-15T11:29:46.367Z,9.82
2023-02-15T11:30:53.369Z,9.87
2023-02-15T11:32:00.680Z,9.75
2023-02-15T11:33:07.239Z,9.57
2023-02-15T11:34:20.413Z,9.74
2023-02-15T11:35:33.398Z,9.88
2023-02-15T11:36:41.942Z,9.92
2023-02-15T11:37:47.138Z,9.88
2023-02-15T11:38:57.966Z,9.92
2023-02-15T11:40:04.326Z,10.02
2023-02-15T11:41:20.134Z,10.14
2023-02-15T11:42:26.324Z,10.23
2023-02-15T11:43:51.446Z,10.28
2023-02-15T11:45:03.593Z,10.25
2023-02-15T11:46:06.855Z,10.30
2023-02-15T11:47:13.067Z,10.32
2023-02-15T11:48:17.079Z,10.35
2023-02-15T11:49:31.471Z,10.38
2023-02-15T11:50:33.894Z,10.44
2023-02-15T11:51:36.887Z,10.38
2023-02-15T11:52:39.109Z,10.39
2023-02-15T11:53:41.635Z,10.45
2023-02-15T11:54:47.660Z,10.42
2023-02-15T11:55:52.048Z,10.26
2023-02-15T11:56:59.398Z,10.28
2023-02-15T11:58:33.017Z,10.45
2023-02-15T11:59:38.818Z,10.56
2023-02-15T12:00:47.698Z,10.62
2023-02-15T12:01:50.173Z,10.83
2023-02-15T12:02:55.627Z,11.01
2023-02-15T12:04:05.310Z,10.76
2023-02-15T12:05:15.991Z,10.94
2023-02-15T12:06:30.469Z,11.02
2023-02-15T12:07:55.324Z,10.94
2023-02-15T12:09:06.340Z,11.15
2023-02-15T12:10:26.002Z,11.18
2023-02-15T12:11:35.858Z,11.12
2023-02-15T12:12:38.588Z,11.13
2023-02-15T12:14:01.502Z,11.00
2023-02-15T12:15:09.294Z,11.06
2023-02-15T12:16:13.800Z,11.09
2023-02-15T12:17:17.819Z,11.32
2023-02-15T12:18:37.300Z,11.36
2023-02-15T12:19:41.659Z,11.38
2023-02-15T12:20:44.512Z,11.33
2023-02-15T12:21:51.052Z,11.36
2023-02-15T12:23:03.345Z,11.37
2023-02-15T12:24:21.842Z,11.39
2023-02-15T12:25:34.143Z,11.38
2023-02-15T12:26:38.201Z,11.41
2023-02-15T12:27:45.043Z,11.38
2023-02-15T12:28:53.045Z,11.36
2023-02-15T12:30:18.377Z,11.43
2023-02-15T12:31:25.846Z,11.42
2023-02-15T12:32:32.618Z,11.49
2023-02-15T12:33:46.779Z,11.43
2023-02-15T12:34:51.138Z,11.31
2023-02-15T12:36:12.362Z,11.44
2023-02-15T12:37:19.676Z,11.52
2023-02-15T12:38:26.816Z,11.71
2023-02-15T12:39:33.085Z,11.73
2023-02-15T12:40:36.602Z,11.80
2023-02-15T12:41:41.166Z,11.91
2023-02-15T12:42:45.937Z,11.84
2023-02-15T12:43:48.798Z,11.80
2023-02-15T12:45:22.276Z,11.84
2023-02-15T12:46:26.865Z,11.79
2023-02-15T12:47:32.163Z,11.62
2023-02-15T12:48:40.726Z,11.40
2023-02-15T12:49:48.094Z,11.25
2023-02-15T12:50:55.426Z,11.25
2023-02-15T12:52:00.482Z,11.37
2023-02-15T12:53:08.860Z,11.41
2023-02-15T12:54:23.291Z,11.59
2023-02-15T12:55:30.765Z,11.59
2023-02-15T12:56:33.177Z,11.59
2023-02-15T12:57:35.682Z,11.71
2023-02-15T12:58:40.572Z,11.59
2023-02-15T12:59:56.701Z,11.59
2023-02-15T13:01:14.346Z,11.43
2023-02-15T13:02:24.392Z,11.38
2023-02-15T13:03:27.129Z,11.42
2023-02-15T13:04:30.932Z,11.38
2023-02-15T13:05:44.985Z,11.46
2023-02-15T13:06:50.531Z,11.63
2023-02-15T13:07:57.103Z,11.64
2023-02-15T13:09:18.213Z,11.62
2023-02-15T13:10:37.080Z,11.54
2023-02-15T13:11:42.662Z,11.60
2023-02-15T13:12:48.501Z,11.58
2023-02-15T13:14:00.597Z,11.55
2023-02-15T13:15:05.601Z,11.56
2023-02-15T13:16:13.491Z,11.24
2023-02-15T13:17:18.590Z,11.19
2023-02-15T13:18:32.165Z,11.31
2023-02-15T13:19:40.934Z,11.40
2023-02-15T13:20:47.370Z,11.44
2023-02-15T13:21:52.798Z,11.51
2023-02-15T13:23:00.872Z,11.58
2023-02-15T13:24:29.110Z,11.66
2023-02-15T13:25:41.388Z,11.71
2023-02-15T13:26:46.163Z,11.78
2023-02-15T13:28:01.654Z,11.79
2023-02-15T13:29:16.904Z,11.94
2023-02-15T13:30:25.871Z,12.02
2023-02-15T13:31:33.543Z,11.98
2023-02-15T13:32:40.494Z,12.08
2023-02-15T13:33:47.769Z,12.07
2023-02-15T13:34:50.344Z,12.05
2023-02-15T13:36:04.363Z,12.05
2023-02-15T13:37:16.556Z,12.03
2023-02-15T13:38:28.048Z,12.10
2023-02-15T13:39:52.587Z,12.15
2023-02-15T13:40:59.800Z,12.14
2023-02-15T13:42:44.326Z,12.10
2023-02-15T13:44:21.712Z,12.06
2023-02-15T13:45:35.097Z,12.18
2023-02-15T13:46:53.441Z,12.36
2023-02-15T13:48:04.741Z,12.19
2023-02-15T13:49:20.651Z,12.07
2023-02-15T13:50:44.418Z,12.00
2023-02-15T13:51:56.549Z,11.99
2023-02-15T13:53:08.033Z,11.98
2023-02-15T13:54:36.234Z,12.01
2023-02-15T13:55:48.314Z,11.99
2023-02-15T13:57:34.932Z,11.95
2023-02-15T13:58:59.952Z,12.02
2023-02-15T14:00:27.053Z,11.95
2023-02-15T14:01:54.201Z,11.90
2023-02-15T14:04:01.764Z,11.89
2023-02-15T14:05:26.955Z,11.95
2023-02-15T14:06:53.826Z,11.95
2023-02-15T14:08:01.710Z,11.89
2023-02-15T14:09:19.689Z,11.91
2023-02-15T14:10:41.539Z,11.89
2023-02-15T14:11:48.410Z,11.90
2023-02-15T14:12:53.465Z,11.89
2023-02-15T14:14:33.456Z,11.90
2023-02-15T14:15:56.886Z,11.83
2023-02-15T14:17:14.978Z,11.89
2023-02-15T14:18:47.512Z,11.83
2023-02-15T14:19:55.440Z,11.89
2023-02-15T14:21:11.658Z,11.99
2023-02-15T14:22:29.371Z,11.95
2023-02-15T14:23:50.195Z,11.91
2023-02-15T14:25:11.028Z,11.97
2023-02-15T14:26:28.956Z,11.90
2023-02-15T14:28:00.240Z,11.89
2023-02-15T14:29:21.935Z,11.77
2023-02-15T14:30:36.027Z,11.77
2023-02-15T14:31:44.787Z,11.79
2023-02-15T14:32:55.312Z,11.97
2023-02-15T14:34:01.631Z,12.03
2023-02-15T14:35:09.415Z,12.06
2023-02-15T14:36:17.445Z,12.03
2023-02-15T14:37:32.274Z,12.03
2023-02-15T14:38:41.042Z,12.01
2023-02-15T14:40:32.257Z,12.05
2023-02-15T14:41:44.557Z,11.98
2023-02-15T14:43:18.728Z,11.97
2023-02-15T14:44:38.710Z,11.89
2023-02-15T14:45:53.852Z,11.80
2023-02-15T14:47:05.938Z,11.80
2023-02-15T14:48:08.102Z,11.76
2023-02-15T14:49:42.895Z,11.77
2023-02-15T14:50:48.597Z,11.74
2023-02-15T14:51:51.134Z,11.75
2023-02-15T14:53:18.423Z,11.70
2023-02-15T14:54:20.827Z,11.69
2023-02-15T14:55:38.184Z,11.62
2023-02-15T14:56:40.964Z,11.59
2023-02-15T14:57:58.391Z,11.48
2023-02-15T14:59:13.798Z,11.56
2023-02-15T15:00:39.938Z,11.53
2023-02-15T15:01:43.278Z,11.54
2023-02-15T15:02:53.716Z,11.55
2023-02-15T15:04:01.257Z,11.56
2023-02-15T15:05:10.555Z,11.57